sensor_id;sensor_type;location;lat;lon;timestamp;P1;durP1;ratioP1;P2;durP2;ratioP2
71083;SDS011;58741;52.672;13.548;2023-04-24T00:00:22;1.00;;;0.93;;
71083;SDS011;58741;52.672;13.548;2023-04-24T00:02:47;0.63;;;0.63;;
71083;SDS011;58741;52.672;13.548;2023-04-24T00:05:14;0.85;;;0.77;;
71083;SDS011;58741;52.672;13.548;2023-04-24T00:07:40;0.95;;;0.75;;
71083;SDS011;58741;52.672;13.548;2023-04-24T00:10:06;1.63;;;1.35;;
71083;SDS011;58741;52.672;13.548;2023-04-24T00:12:33;1.13;;;0.93;;
71083;SDS011;58741;52.672;13.548;2023-04-24T00:14:58;1.25;;;0.90;;
71083;SDS011;58741;52.672;13.548;2023-04-24T00:17:24;4.22;;;1.42;;
71083;SDS011;58741;52.672;13.548;2023-04-24T00:19:50;0.68;;;0.68;;
71083;SDS011;58741;52.672;13.548;2023-04-24T00:22:16;1.35;;;0.80;;
71083;SDS011;58741;52.672;13.548;2023-04-24T00:24:42;1.10;;;0.88;;
71083;SDS011;58741;52.672;13.548;2023-04-24T00:27:08;0.75;;;0.70;;
71083;SDS011;58741;52.672;13.548;2023-04-24T00:29:34;1.00;;;0.90;;
71083;SDS011;58741;52.672;13.548;2023-04-24T00:31:59;3.85;;;1.20;;
71083;SDS011;58741;52.672;13.548;2023-04-24T00:34:25;1.02;;;0.93;;
71083;SDS011;58741;52.672;13.548;2023-04-24T00:36:51;1.85;;;0.52;;
71083;SDS011;58741;52.672;13.548;2023-04-24T00:39:20;1.20;;;0.85;;
71083;SDS011;58741;52.672;13.548;2023-04-24T00:41:46;1.10;;;0.95;;
71083;SDS011;58741;52.672;13.548;2023-04-24T00:44:13;2.00;;;1.17;;
71083;SDS011;58741;52.672;13.548;2023-04-24T00:46:39;2.05;;;1.05;;
71083;SDS011;58741;52.672;13.548;2023-04-24T00:49:05;1.35;;;1.02;;
71083;SDS011;58741;52.672;13.548;2023-04-24T00:51:31;1.38;;;1.02;;
71083;SDS011;58741;52.672;13.548;2023-04-24T00:53:58;1.90;;;1.20;;
71083;SDS011;58741;52.672;13.548;2023-04-24T00:56:24;1.17;;;0.77;;
71083;SDS011;58741;52.672;13.548;2023-04-24T00:58:50;1.42;;;1.02;;
71083;SDS011;58741;52.672;13.548;2023-04-24T01:01:16;1.75;;;0.95;;
71083;SDS011;58741;52.672;13.548;2023-04-24T01:03:45;2.00;;;1.25;;
71083;SDS011;58741;52.672;13.548;2023-04-24T01:06:11;1.17;;;0.90;;
71083;SDS011;58741;52.672;13.548;2023-04-24T01:08:37;1.17;;;1.05;;
71083;SDS011;58741;52.672;13.548;2023-04-24T01:11:04;1.35;;;1.05;;
71083;SDS011;58741;52.672;13.548;2023-04-24T01:13:31;1.70;;;0.95;;
71083;SDS011;58741;52.672;13.548;2023-04-24T01:15:57;1.15;;;0.80;;
71083;SDS011;58741;52.672;13.548;2023-04-24T01:18:23;0.95;;;0.82;;
71083;SDS011;58741;52.672;13.548;2023-04-24T01:20:49;1.25;;;1.13;;
71083;SDS011;58741;52.672;13.548;2023-04-24T01:23:18;0.75;;;0.60;;
71083;SDS011;58741;52.672;13.548;2023-04-24T01:25:43;1.27;;;1.15;;
71083;SDS011;58741;52.672;13.548;2023-04-24T01:28:09;1.58;;;1.15;;
71083;SDS011;58741;52.672;13.548;2023-04-24T01:30:37;1.10;;;0.93;;
71083;SDS011;58741;52.672;13.548;2023-04-24T01:33:03;1.60;;;1.20;;
71083;SDS011;58741;52.672;13.548;2023-04-24T01:35:28;1.27;;;1.17;;
71083;SDS011;58741;52.672;13.548;2023-04-24T01:37:54;1.05;;;0.90;;
71083;SDS011;58741;52.672;13.548;2023-04-24T01:40:20;2.10;;;1.30;;
71083;SDS011;58741;52.672;13.548;2023-04-24T01:42:46;2.45;;;0.90;;
71083;SDS011;58741;52.672;13.548;2023-04-24T01:45:12;1.45;;;1.25;;
71083;SDS011;58741;52.672;13.548;2023-04-24T01:47:40;1.35;;;0.90;;
71083;SDS011;58741;52.672;13.548;2023-04-24T01:50:06;3.38;;;1.20;;
71083;SDS011;58741;52.672;13.548;2023-04-24T01:52:33;3.42;;;1.05;;
71083;SDS011;58741;52.672;13.548;2023-04-24T01:55:00;1.92;;;1.15;;
71083;SDS011;58741;52.672;13.548;2023-04-24T01:57:26;0.95;;;0.88;;
71083;SDS011;58741;52.672;13.548;2023-04-24T01:59:51;0.95;;;0.93;;
71083;SDS011;58741;52.672;13.548;2023-04-24T02:02:17;1.30;;;1.20;;
71083;SDS011;58741;52.672;13.548;2023-04-24T02:04:43;1.83;;;1.23;;
71083;SDS011;58741;52.672;13.548;2023-04-24T02:07:08;1.33;;;1.08;;
71083;SDS011;58741;52.672;13.548;2023-04-24T02:09:34;2.40;;;1.17;;
71083;SDS011;58741;52.672;13.548;2023-04-24T02:11:59;1.60;;;1.33;;
71083;SDS011;58741;52.672;13.548;2023-04-24T02:14:25;1.17;;;1.00;;
71083;SDS011;58741;52.672;13.548;2023-04-24T02:16:51;2.72;;;1.30;;
71083;SDS011;58741;52.672;13.548;2023-04-24T02:19:18;1.15;;;0.80;;
71083;SDS011;58741;52.672;13.548;2023-04-24T02:21:44;1.20;;;0.77;;
71083;SDS011;58741;52.672;13.548;2023-04-24T02:24:09;1.13;;;1.00;;
71083;SDS011;58741;52.672;13.548;2023-04-24T02:26:35;1.38;;;0.93;;
71083;SDS011;58741;52.672;13.548;2023-04-24T02:29:00;1.73;;;1.00;;
71083;SDS011;58741;52.672;13.548;2023-04-24T02:31:26;1.20;;;0.90;;
71083;SDS011;58741;52.672;13.548;2023-04-24T02:33:52;1.60;;;0.98;;
71083;SDS011;58741;52.672;13.548;2023-04-24T02:36:18;2.17;;;1.08;;
71083;SDS011;58741;52.672;13.548;2023-04-24T02:38:43;1.13;;;1.00;;
71083;SDS011;58741;52.672;13.548;2023-04-24T02:41:11;2.63;;;1.02;;
71083;SDS011;58741;52.672;13.548;2023-04-24T02:43:37;2.08;;;1.40;;
71083;SDS011;58741;52.672;13.548;2023-04-24T02:46:02;1.10;;;1.00;;
71083;SDS011;58741;52.672;13.548;2023-04-24T02:48:28;1.35;;;1.25;;
71083;SDS011;58741;52.672;13.548;2023-04-24T02:50:53;2.20;;;1.25;;
71083;SDS011;58741;52.672;13.548;2023-04-24T02:53:19;3.50;;;1.00;;
71083;SDS011;58741;52.672;13.548;2023-04-24T02:55:45;0.55;;;0.55;;
71083;SDS011;58741;52.672;13.548;2023-04-24T02:58:11;1.33;;;1.15;;
71083;SDS011;58741;52.672;13.548;2023-04-24T03:00:38;3.13;;;1.30;;
71083;SDS011;58741;52.672;13.548;2023-04-24T03:03:04;2.72;;;1.02;;
71083;SDS011;58741;52.672;13.548;2023-04-24T03:05:30;0.95;;;0.88;;
71083;SDS011;58741;52.672;13.548;2023-04-24T03:07:56;2.67;;;1.13;;
71083;SDS011;58741;52.672;13.548;2023-04-24T03:10:21;1.08;;;0.80;;
71083;SDS011;58741;52.672;13.548;2023-04-24T03:12:47;3.13;;;1.10;;
71083;SDS011;58741;52.672;13.548;2023-04-24T03:15:13;0.80;;;0.80;;
71083;SDS011;58741;52.672;13.548;2023-04-24T03:17:39;1.00;;;0.90;;
71083;SDS011;58741;52.672;13.548;2023-04-24T03:20:05;2.35;;;1.00;;
71083;SDS011;58741;52.672;13.548;2023-04-24T03:22:33;1.27;;;1.17;;
71083;SDS011;58741;52.672;13.548;2023-04-24T03:25:00;1.98;;;1.13;;
71083;SDS011;58741;52.672;13.548;2023-04-24T03:27:26;1.33;;;0.98;;
71083;SDS011;58741;52.672;13.548;2023-04-24T03:29:59;1.00;;;0.93;;
71083;SDS011;58741;52.672;13.548;2023-04-24T03:32:46;3.63;;;1.50;;
71083;SDS011;58741;52.672;13.548;2023-04-24T03:35:14;2.03;;;1.42;;
71083;SDS011;58741;52.672;13.548;2023-04-24T03:37:40;1.23;;;1.13;;
71083;SDS011;58741;52.672;13.548;2023-04-24T03:40:26;2.40;;;1.60;;
71083;SDS011;58741;52.672;13.548;2023-04-24T03:42:53;1.55;;;1.45;;
71083;SDS011;58741;52.672;13.548;2023-04-24T03:45:19;2.33;;;1.40;;
71083;SDS011;58741;52.672;13.548;2023-04-24T03:47:47;2.33;;;1.52;;
71083;SDS011;58741;52.672;13.548;2023-04-24T03:50:13;1.95;;;1.45;;
71083;SDS011;58741;52.672;13.548;2023-04-24T03:52:41;1.42;;;1.33;;
71083;SDS011;58741;52.672;13.548;2023-04-24T03:55:08;1.73;;;1.35;;
71083;SDS011;58741;52.672;13.548;2023-04-24T03:57:40;3.53;;;1.27;;
71083;SDS011;58741;52.672;13.548;2023-04-24T04:00:15;3.83;;;1.37;;
71083;SDS011;58741;52.672;13.548;2023-04-24T04:02:42;1.00;;;0.90;;
71083;SDS011;58741;52.672;13.548;2023-04-24T04:05:08;1.75;;;1.20;;
71083;SDS011;58741;52.672;13.548;2023-04-24T04:07:34;1.23;;;1.05;;
71083;SDS011;58741;52.672;13.548;2023-04-24T04:10:00;2.85;;;1.20;;
71083;SDS011;58741;52.672;13.548;2023-04-24T04:12:25;1.75;;;1.40;;
71083;SDS011;58741;52.672;13.548;2023-04-24T04:14:52;1.60;;;1.45;;
71083;SDS011;58741;52.672;13.548;2023-04-24T04:17:18;1.40;;;1.25;;
71083;SDS011;58741;52.672;13.548;2023-04-24T04:19:44;1.92;;;1.10;;
71083;SDS011;58741;52.672;13.548;2023-04-24T04:22:09;1.10;;;1.00;;
71083;SDS011;58741;52.672;13.548;2023-04-24T04:24:40;0.95;;;0.90;;
71083;SDS011;58741;52.672;13.548;2023-04-24T04:27:07;1.02;;;0.77;;
71083;SDS011;58741;52.672;13.548;2023-04-24T04:29:48;0.60;;;0.60;;
71083;SDS011;58741;52.672;13.548;2023-04-24T04:32:15;1.77;;;1.27;;
71083;SDS011;58741;52.672;13.548;2023-04-24T04:34:41;1.02;;;0.88;;
71083;SDS011;58741;52.672;13.548;2023-04-24T04:37:09;1.17;;;0.93;;
71083;SDS011;58741;52.672;13.548;2023-04-24T04:39:59;2.03;;;1.10;;
71083;SDS011;58741;52.672;13.548;2023-04-24T04:42:30;1.60;;;1.25;;
71083;SDS011;58741;52.672;13.548;2023-04-24T04:44:57;1.33;;;1.08;;
71083;SDS011;58741;52.672;13.548;2023-04-24T04:47:30;1.20;;;1.10;;
71083;SDS011;58741;52.672;13.548;2023-04-24T04:49:58;1.08;;;0.90;;
71083;SDS011;58741;52.672;13.548;2023-04-24T04:52:26;1.67;;;1.10;;
71083;SDS011;58741;52.672;13.548;2023-04-24T04:55:00;2.33;;;1.38;;
71083;SDS011;58741;52.672;13.548;2023-04-24T04:57:39;1.08;;;0.98;;
71083;SDS011;58741;52.672;13.548;2023-04-24T05:00:05;1.40;;;1.17;;
71083;SDS011;58741;52.672;13.548;2023-04-24T05:02:41;1.33;;;1.23;;
71083;SDS011;58741;52.672;13.548;2023-04-24T05:05:07;1.70;;;1.42;;
71083;SDS011;58741;52.672;13.548;2023-04-24T05:07:33;1.90;;;1.30;;
71083;SDS011;58741;52.672;13.548;2023-04-24T05:09:59;1.88;;;1.23;;
71083;SDS011;58741;52.672;13.548;2023-04-24T05:12:25;1.38;;;1.00;;
71083;SDS011;58741;52.672;13.548;2023-04-24T05:14:52;2.33;;;1.48;;
71083;SDS011;58741;52.672;13.548;2023-04-24T05:17:18;1.33;;;1.02;;
71083;SDS011;58741;52.672;13.548;2023-04-24T05:19:44;2.40;;;1.35;;
71083;SDS011;58741;52.672;13.548;2023-04-24T05:22:10;1.00;;;0.88;;
71083;SDS011;58741;52.672;13.548;2023-04-24T05:24:45;1.90;;;1.40;;
71083;SDS011;58741;52.672;13.548;2023-04-24T05:27:31;1.52;;;1.27;;
71083;SDS011;58741;52.672;13.548;2023-04-24T05:29:57;1.10;;;0.90;;
71083;SDS011;58741;52.672;13.548;2023-04-24T05:32:23;1.13;;;0.95;;
71083;SDS011;58741;52.672;13.548;2023-04-24T05:34:48;1.63;;;1.17;;
71083;SDS011;58741;52.672;13.548;2023-04-24T05:37:14;2.40;;;1.10;;
71083;SDS011;58741;52.672;13.548;2023-04-24T05:39:40;1.13;;;1.02;;
71083;SDS011;58741;52.672;13.548;2023-04-24T05:42:07;0.90;;;0.77;;
71083;SDS011;58741;52.672;13.548;2023-04-24T05:44:32;1.83;;;1.20;;
71083;SDS011;58741;52.672;13.548;2023-04-24T05:46:58;1.73;;;0.90;;
71083;SDS011;58741;52.672;13.548;2023-04-24T05:49:24;1.52;;;1.10;;
71083;SDS011;58741;52.672;13.548;2023-04-24T05:51:49;1.92;;;0.90;;
71083;SDS011;58741;52.672;13.548;2023-04-24T05:54:16;1.85;;;1.20;;
71083;SDS011;58741;52.672;13.548;2023-04-24T05:56:42;2.17;;;0.80;;
71083;SDS011;58741;52.672;13.548;2023-04-24T05:59:07;2.67;;;1.10;;
71083;SDS011;58741;52.672;13.548;2023-04-24T06:01:33;1.00;;;0.90;;
71083;SDS011;58741;52.672;13.548;2023-04-24T06:04:07;0.90;;;0.73;;
71083;SDS011;58741;52.672;13.548;2023-04-24T06:06:33;0.82;;;0.70;;
71083;SDS011;58741;52.672;13.548;2023-04-24T06:09:00;2.20;;;1.23;;
71083;SDS011;58741;52.672;13.548;2023-04-24T06:11:26;4.63;;;1.05;;
71083;SDS011;58741;52.672;13.548;2023-04-24T06:13:52;1.27;;;0.93;;
71083;SDS011;58741;52.672;13.548;2023-04-24T06:16:53;0.80;;;0.70;;
71083;SDS011;58741;52.672;13.548;2023-04-24T06:19:30;2.22;;;1.17;;
71083;SDS011;58741;52.672;13.548;2023-04-24T06:21:55;2.47;;;1.05;;
71083;SDS011;58741;52.672;13.548;2023-04-24T06:24:21;1.58;;;0.93;;
71083;SDS011;58741;52.672;13.548;2023-04-24T06:26:46;1.08;;;0.95;;
71083;SDS011;58741;52.672;13.548;2023-04-24T06:29:12;1.98;;;0.77;;
71083;SDS011;58741;52.672;13.548;2023-04-24T06:31:38;3.70;;;1.52;;
71083;SDS011;58741;52.672;13.548;2023-04-24T06:34:03;3.92;;;0.95;;
71083;SDS011;58741;52.672;13.548;2023-04-24T06:36:29;2.25;;;0.75;;
71083;SDS011;58741;52.672;13.548;2023-04-24T06:38:56;0.50;;;0.50;;
71083;SDS011;58741;52.672;13.548;2023-04-24T06:41:22;0.63;;;0.60;;
71083;SDS011;58741;52.672;13.548;2023-04-24T06:43:48;0.95;;;0.85;;
71083;SDS011;58741;52.672;13.548;2023-04-24T06:46:13;0.47;;;0.47;;
71083;SDS011;58741;52.672;13.548;2023-04-24T06:48:39;1.23;;;0.70;;
71083;SDS011;58741;52.672;13.548;2023-04-24T06:51:05;0.63;;;0.63;;
71083;SDS011;58741;52.672;13.548;2023-04-24T06:53:30;1.65;;;0.88;;
71083;SDS011;58741;52.672;13.548;2023-04-24T06:55:56;1.15;;;0.90;;
71083;SDS011;58741;52.672;13.548;2023-04-24T06:58:23;1.75;;;0.90;;
71083;SDS011;58741;52.672;13.548;2023-04-24T07:00:50;0.55;;;0.55;;
71083;SDS011;58741;52.672;13.548;2023-04-24T07:03:15;0.73;;;0.73;;
71083;SDS011;58741;52.672;13.548;2023-04-24T07:05:41;0.63;;;0.60;;
71083;SDS011;58741;52.672;13.548;2023-04-24T07:08:07;0.73;;;0.60;;
71083;SDS011;58741;52.672;13.548;2023-04-24T07:10:33;1.73;;;0.70;;
71083;SDS011;58741;52.672;13.548;2023-04-24T07:13:00;1.35;;;0.55;;
71083;SDS011;58741;52.672;13.548;2023-04-24T07:15:26;0.68;;;0.68;;
71083;SDS011;58741;52.672;13.548;2023-04-24T07:17:52;0.63;;;0.57;;
71083;SDS011;58741;52.672;13.548;2023-04-24T07:20:18;0.68;;;0.68;;
71083;SDS011;58741;52.672;13.548;2023-04-24T07:22:43;0.70;;;0.40;;
71083;SDS011;58741;52.672;13.548;2023-04-24T07:25:09;0.70;;;0.40;;
71083;SDS011;58741;52.672;13.548;2023-04-24T07:27:35;0.60;;;0.60;;
71083;SDS011;58741;52.672;13.548;2023-04-24T07:30:01;0.77;;;0.60;;
71083;SDS011;58741;52.672;13.548;2023-04-24T07:32:28;0.40;;;0.40;;
71083;SDS011;58741;52.672;13.548;2023-04-24T07:34:54;0.43;;;0.43;;
71083;SDS011;58741;52.672;13.548;2023-04-24T07:37:20;1.83;;;0.50;;
71083;SDS011;58741;52.672;13.548;2023-04-24T07:39:46;0.60;;;0.50;;
71083;SDS011;58741;52.672;13.548;2023-04-24T07:42:11;0.43;;;0.43;;
71083;SDS011;58741;52.672;13.548;2023-04-24T07:44:37;0.63;;;0.40;;
71083;SDS011;58741;52.672;13.548;2023-04-24T07:47:02;0.57;;;0.40;;
71083;SDS011;58741;52.672;13.548;2023-04-24T07:49:28;0.50;;;0.50;;
71083;SDS011;58741;52.672;13.548;2023-04-24T07:51:54;0.30;;;0.30;;
71083;SDS011;58741;52.672;13.548;2023-04-24T07:54:20;0.50;;;0.30;;
71083;SDS011;58741;52.672;13.548;2023-04-24T07:56:45;0.30;;;0.30;;
71083;SDS011;58741;52.672;13.548;2023-04-24T07:59:11;0.60;;;0.40;;
71083;SDS011;58741;52.672;13.548;2023-04-24T08:01:37;0.20;;;0.20;;
71083;SDS011;58741;52.672;13.548;2023-04-24T08:04:03;0.20;;;0.20;;
71083;SDS011;58741;52.672;13.548;2023-04-24T08:06:28;0.20;;;0.20;;
71083;SDS011;58741;52.672;13.548;2023-04-24T08:08:59;0.20;;;0.20;;
71083;SDS011;58741;52.672;13.548;2023-04-24T08:11:25;0.20;;;0.20;;
71083;SDS011;58741;52.672;13.548;2023-04-24T08:13:51;0.47;;;0.30;;
71083;SDS011;58741;52.672;13.548;2023-04-24T08:16:17;0.75;;;0.45;;
71083;SDS011;58741;52.672;13.548;2023-04-24T08:18:42;0.25;;;0.25;;
71083;SDS011;58741;52.672;13.548;2023-04-24T08:21:08;0.40;;;0.30;;
71083;SDS011;58741;52.672;13.548;2023-04-24T08:23:34;0.20;;;0.20;;
71083;SDS011;58741;52.672;13.548;2023-04-24T08:25:59;0.20;;;0.20;;
71083;SDS011;58741;52.672;13.548;2023-04-24T08:28:25;0.40;;;0.40;;
71083;SDS011;58741;52.672;13.548;2023-04-24T08:30:50;0.10;;;0.10;;
71083;SDS011;58741;52.672;13.548;2023-04-24T08:33:19;0.20;;;0.20;;
71083;SDS011;58741;52.672;13.548;2023-04-24T08:35:46;0.20;;;0.20;;
71083;SDS011;58741;52.672;13.548;2023-04-24T08:38:11;0.13;;;0.13;;
71083;SDS011;58741;52.672;13.548;2023-04-24T08:40:37;0.25;;;0.25;;
71083;SDS011;58741;52.672;13.548;2023-04-24T08:43:03;0.17;;;0.17;;
71083;SDS011;58741;52.672;13.548;2023-04-24T08:45:29;0.30;;;0.30;;
71083;SDS011;58741;52.672;13.548;2023-04-24T08:47:55;0.17;;;0.17;;
71083;SDS011;58741;52.672;13.548;2023-04-24T08:50:22;1.38;;;0.20;;
71083;SDS011;58741;52.672;13.548;2023-04-24T08:52:50;0.40;;;0.20;;
71083;SDS011;58741;52.672;13.548;2023-04-24T08:55:18;0.70;;;0.40;;
71083;SDS011;58741;52.672;13.548;2023-04-24T08:57:45;0.40;;;0.40;;
71083;SDS011;58741;52.672;13.548;2023-04-24T09:00:15;0.20;;;0.20;;
71083;SDS011;58741;52.672;13.548;2023-04-24T09:02:41;0.20;;;0.20;;
71083;SDS011;58741;52.672;13.548;2023-04-24T09:05:08;0.20;;;0.20;;
71083;SDS011;58741;52.672;13.548;2023-04-24T09:07:35;0.45;;;0.40;;
71083;SDS011;58741;52.672;13.548;2023-04-24T09:10:04;0.30;;;0.30;;
71083;SDS011;58741;52.672;13.548;2023-04-24T09:12:31;0.25;;;0.25;;
71083;SDS011;58741;52.672;13.548;2023-04-24T09:14:57;0.30;;;0.30;;
71083;SDS011;58741;52.672;13.548;2023-04-24T09:17:24;6.20;;;0.30;;
71083;SDS011;58741;52.672;13.548;2023-04-24T09:19:52;0.20;;;0.20;;
71083;SDS011;58741;52.672;13.548;2023-04-24T09:22:17;0.30;;;0.30;;
71083;SDS011;58741;52.672;13.548;2023-04-24T09:24:43;0.22;;;0.22;;
71083;SDS011;58741;52.672;13.548;2023-04-24T09:27:11;0.20;;;0.20;;
71083;SDS011;58741;52.672;13.548;2023-04-24T09:29:37;0.57;;;0.30;;
71083;SDS011;58741;52.672;13.548;2023-04-24T09:32:19;0.13;;;0.13;;
71083;SDS011;58741;52.672;13.548;2023-04-24T09:34:47;0.20;;;0.20;;
71083;SDS011;58741;52.672;13.548;2023-04-24T09:37:29;0.10;;;0.10;;
71083;SDS011;58741;52.672;13.548;2023-04-24T09:42:46;0.20;;;0.20;;
71083;SDS011;58741;52.672;13.548;2023-04-24T09:45:17;0.53;;;0.20;;
71083;SDS011;58741;52.672;13.548;2023-04-24T09:47:43;0.20;;;0.20;;
71083;SDS011;58741;52.672;13.548;2023-04-24T09:50:09;0.28;;;0.28;;
71083;SDS011;58741;52.672;13.548;2023-04-24T09:52:42;1.38;;;0.30;;
71083;SDS011;58741;52.672;13.548;2023-04-24T09:55:12;0.30;;;0.30;;
71083;SDS011;58741;52.672;13.548;2023-04-24T09:57:48;0.28;;;0.28;;
71083;SDS011;58741;52.672;13.548;2023-04-24T10:00:19;0.32;;;0.20;;
71083;SDS011;58741;52.672;13.548;2023-04-24T10:02:55;0.20;;;0.20;;
71083;SDS011;58741;52.672;13.548;2023-04-24T10:05:28;0.20;;;0.20;;
71083;SDS011;58741;52.672;13.548;2023-04-24T10:07:57;0.20;;;0.20;;
71083;SDS011;58741;52.672;13.548;2023-04-24T10:10:33;0.20;;;0.20;;
71083;SDS011;58741;52.672;13.548;2023-04-24T10:13:03;0.28;;;0.28;;
71083;SDS011;58741;52.672;13.548;2023-04-24T10:15:29;0.80;;;0.47;;
71083;SDS011;58741;52.672;13.548;2023-04-24T10:17:55;0.20;;;0.20;;
71083;SDS011;58741;52.672;13.548;2023-04-24T10:20:24;0.20;;;0.20;;
71083;SDS011;58741;52.672;13.548;2023-04-24T10:22:52;0.30;;;0.20;;
71083;SDS011;58741;52.672;13.548;2023-04-24T10:25:19;1.95;;;0.30;;
71083;SDS011;58741;52.672;13.548;2023-04-24T10:27:47;0.40;;;0.40;;
71083;SDS011;58741;52.672;13.548;2023-04-24T10:30:13;0.28;;;0.28;;
71083;SDS011;58741;52.672;13.548;2023-04-24T10:32:40;0.20;;;0.20;;
71083;SDS011;58741;52.672;13.548;2023-04-24T10:35:06;0.22;;;0.22;;
71083;SDS011;58741;52.672;13.548;2023-04-24T10:37:36;0.40;;;0.30;;
71083;SDS011;58741;52.672;13.548;2023-04-24T10:40:06;0.10;;;0.10;;
71083;SDS011;58741;52.672;13.548;2023-04-24T10:42:33;0.30;;;0.30;;
71083;SDS011;58741;52.672;13.548;2023-04-24T10:44:59;0.20;;;0.20;;
71083;SDS011;58741;52.672;13.548;2023-04-24T10:47:38;0.15;;;0.15;;
71083;SDS011;58741;52.672;13.548;2023-04-24T10:50:14;0.30;;;0.30;;
71083;SDS011;58741;52.672;13.548;2023-04-24T10:52:47;0.30;;;0.30;;
71083;SDS011;58741;52.672;13.548;2023-04-24T10:55:15;0.30;;;0.30;;
71083;SDS011;58741;52.672;13.548;2023-04-24T10:58:00;0.35;;;0.22;;
71083;SDS011;58741;52.672;13.548;2023-04-24T11:00:28;0.20;;;0.20;;
71083;SDS011;58741;52.672;13.548;2023-04-24T11:02:53;0.20;;;0.20;;
71083;SDS011;58741;52.672;13.548;2023-04-24T11:05:20;0.30;;;0.30;;
71083;SDS011;58741;52.672;13.548;2023-04-24T11:10:44;0.30;;;0.30;;
71083;SDS011;58741;52.672;13.548;2023-04-24T11:13:10;1.17;;;0.40;;
71083;SDS011;58741;52.672;13.548;2023-04-24T11:15:41;0.28;;;0.28;;
71083;SDS011;58741;52.672;13.548;2023-04-24T11:18:12;0.35;;;0.35;;
71083;SDS011;58741;52.672;13.548;2023-04-24T11:20:41;1.02;;;0.40;;
71083;SDS011;58741;52.672;13.548;2023-04-24T11:23:08;2.53;;;0.50;;
71083;SDS011;58741;52.672;13.548;2023-04-24T11:25:34;0.30;;;0.30;;
71083;SDS011;58741;52.672;13.548;2023-04-24T11:28:04;0.35;;;0.25;;
71083;SDS011;58741;52.672;13.548;2023-04-24T11:30:31;0.88;;;0.40;;
71083;SDS011;58741;52.672;13.548;2023-04-24T11:33:05;0.70;;;0.30;;
71083;SDS011;58741;52.672;13.548;2023-04-24T11:35:34;0.20;;;0.20;;
71083;SDS011;58741;52.672;13.548;2023-04-24T11:38:03;0.20;;;0.20;;
71083;SDS011;58741;52.672;13.548;2023-04-24T11:40:30;0.20;;;0.20;;
71083;SDS011;58741;52.672;13.548;2023-04-24T11:42:56;0.43;;;0.38;;
71083;SDS011;58741;52.672;13.548;2023-04-24T11:45:26;0.20;;;0.20;;
71083;SDS011;58741;52.672;13.548;2023-04-24T11:47:53;0.32;;;0.32;;
71083;SDS011;58741;52.672;13.548;2023-04-24T11:50:20;3.22;;;0.40;;
71083;SDS011;58741;52.672;13.548;2023-04-24T11:52:48;0.95;;;0.57;;
71083;SDS011;58741;52.672;13.548;2023-04-24T11:57:50;0.30;;;0.30;;
71083;SDS011;58741;52.672;13.548;2023-04-24T12:00:19;0.30;;;0.30;;
71083;SDS011;58741;52.672;13.548;2023-04-24T12:02:46;0.65;;;0.45;;
71083;SDS011;58741;52.672;13.548;2023-04-24T12:05:19;0.38;;;0.38;;
71083;SDS011;58741;52.672;13.548;2023-04-24T12:07:46;0.40;;;0.40;;
71083;SDS011;58741;52.672;13.548;2023-04-24T12:10:12;0.30;;;0.30;;
71083;SDS011;58741;52.672;13.548;2023-04-24T12:12:37;0.40;;;0.40;;
71083;SDS011;58741;52.672;13.548;2023-04-24T12:15:07;0.25;;;0.25;;
71083;SDS011;58741;52.672;13.548;2023-04-24T12:17:34;0.90;;;0.77;;
71083;SDS011;58741;52.672;13.548;2023-04-24T12:20:02;0.70;;;0.43;;
71083;SDS011;58741;52.672;13.548;2023-04-24T12:25:31;0.20;;;0.20;;
71083;SDS011;58741;52.672;13.548;2023-04-24T12:30:30;0.45;;;0.40;;
71083;SDS011;58741;52.672;13.548;2023-04-24T12:32:57;1.20;;;0.47;;
71083;SDS011;58741;52.672;13.548;2023-04-24T12:35:24;0.20;;;0.20;;
71083;SDS011;58741;52.672;13.548;2023-04-24T12:37:52;0.20;;;0.20;;
71083;SDS011;58741;52.672;13.548;2023-04-24T12:40:18;0.20;;;0.20;;
71083;SDS011;58741;52.672;13.548;2023-04-24T12:42:45;0.30;;;0.30;;
71083;SDS011;58741;52.672;13.548;2023-04-24T12:45:14;0.20;;;0.20;;
71083;SDS011;58741;52.672;13.548;2023-04-24T12:47:41;0.22;;;0.22;;
71083;SDS011;58741;52.672;13.548;2023-04-24T12:50:08;0.30;;;0.30;;
71083;SDS011;58741;52.672;13.548;2023-04-24T12:52:35;0.38;;;0.38;;
71083;SDS011;58741;52.672;13.548;2023-04-24T12:55:01;0.30;;;0.30;;
71083;SDS011;58741;52.672;13.548;2023-04-24T12:57:27;0.55;;;0.40;;
71083;SDS011;58741;52.672;13.548;2023-04-24T12:59:55;0.77;;;0.47;;
71083;SDS011;58741;52.672;13.548;2023-04-24T13:02:25;0.15;;;0.15;;
71083;SDS011;58741;52.672;13.548;2023-04-24T13:04:53;0.30;;;0.30;;
71083;SDS011;58741;52.672;13.548;2023-04-24T13:07:18;0.43;;;0.38;;
71083;SDS011;58741;52.672;13.548;2023-04-24T13:09:44;0.20;;;0.20;;
71083;SDS011;58741;52.672;13.548;2023-04-24T13:12:11;1.75;;;0.40;;
71083;SDS011;58741;52.672;13.548;2023-04-24T13:14:37;0.32;;;0.32;;
71083;SDS011;58741;52.672;13.548;2023-04-24T13:17:03;0.30;;;0.30;;
71083;SDS011;58741;52.672;13.548;2023-04-24T13:19:29;0.32;;;0.32;;
71083;SDS011;58741;52.672;13.548;2023-04-24T13:22:00;0.30;;;0.30;;
71083;SDS011;58741;52.672;13.548;2023-04-24T13:24:25;0.20;;;0.20;;
71083;SDS011;58741;52.672;13.548;2023-04-24T13:26:52;0.20;;;0.20;;
71083;SDS011;58741;52.672;13.548;2023-04-24T13:29:18;0.52;;;0.40;;
71083;SDS011;58741;52.672;13.548;2023-04-24T13:31:43;0.28;;;0.28;;
71083;SDS011;58741;52.672;13.548;2023-04-24T13:34:09;0.40;;;0.30;;
71083;SDS011;58741;52.672;13.548;2023-04-24T13:36:35;0.20;;;0.20;;
71083;SDS011;58741;52.672;13.548;2023-04-24T13:39:01;0.38;;;0.30;;
71083;SDS011;58741;52.672;13.548;2023-04-24T13:41:29;0.35;;;0.30;;
71083;SDS011;58741;52.672;13.548;2023-04-24T13:43:55;0.30;;;0.30;;
71083;SDS011;58741;52.672;13.548;2023-04-24T13:46:21;0.40;;;0.40;;
71083;SDS011;58741;52.672;13.548;2023-04-24T13:48:47;0.20;;;0.20;;
71083;SDS011;58741;52.672;13.548;2023-04-24T13:51:12;0.75;;;0.75;;
71083;SDS011;58741;52.672;13.548;2023-04-24T13:53:38;0.30;;;0.30;;
71083;SDS011;58741;52.672;13.548;2023-04-24T13:56:04;0.30;;;0.30;;
71083;SDS011;58741;52.672;13.548;2023-04-24T13:58:30;0.55;;;0.40;;
71083;SDS011;58741;52.672;13.548;2023-04-24T14:00:57;0.50;;;0.50;;
71083;SDS011;58741;52.672;13.548;2023-04-24T14:03:23;0.30;;;0.30;;
71083;SDS011;58741;52.672;13.548;2023-04-24T14:05:48;0.30;;;0.30;;
71083;SDS011;58741;52.672;13.548;2023-04-24T14:08:14;1.73;;;0.40;;
71083;SDS011;58741;52.672;13.548;2023-04-24T14:10:40;0.50;;;0.40;;
71083;SDS011;58741;52.672;13.548;2023-04-24T14:13:05;0.22;;;0.22;;
71083;SDS011;58741;52.672;13.548;2023-04-24T14:15:31;0.40;;;0.40;;
71083;SDS011;58741;52.672;13.548;2023-04-24T14:17:57;0.25;;;0.25;;
71083;SDS011;58741;52.672;13.548;2023-04-24T14:20:23;0.30;;;0.30;;
71083;SDS011;58741;52.672;13.548;2023-04-24T14:22:48;0.52;;;0.40;;
71083;SDS011;58741;52.672;13.548;2023-04-24T14:25:14;1.27;;;0.57;;
71083;SDS011;58741;52.672;13.548;2023-04-24T14:27:40;0.40;;;0.40;;
71083;SDS011;58741;52.672;13.548;2023-04-24T14:30:06;0.30;;;0.30;;
71083;SDS011;58741;52.672;13.548;2023-04-24T14:32:32;0.95;;;0.40;;
71083;SDS011;58741;52.672;13.548;2023-04-24T14:34:58;0.30;;;0.30;;
71083;SDS011;58741;52.672;13.548;2023-04-24T14:37:23;0.20;;;0.20;;
71083;SDS011;58741;52.672;13.548;2023-04-24T14:39:49;0.50;;;0.30;;
71083;SDS011;58741;52.672;13.548;2023-04-24T14:42:14;0.35;;;0.30;;
71083;SDS011;58741;52.672;13.548;2023-04-24T14:44:41;0.40;;;0.38;;
71083;SDS011;58741;52.672;13.548;2023-04-24T14:47:07;0.30;;;0.30;;